Date,TemperatureHighF,TemperatureAvgF,TemperatureLowF,DewpointHighF,DewpointAvgF,DewpointLowF,HumidityHigh,HumidityAvg,HumidityLow,PressureMaxIn,PressureMinIn,WindSpeedMaxMPH,WindSpeedAvgMPH,GustSpeedMaxMPH,PrecipitationSumIn
2013-1-1,79.3,72.8,66.2,65.0,61.4,59.0,84,68,57,30.19,30.04,11,2,0,0.00
2013-1-2,83.4,71.5,60.8,69.0,64.3,59.0,97,80,52,30.08,29.98,5,1,0,0.00
2013-1-3,84.9,73.6,67.1,70.0,67.2,65.0,94,81,57,30.12,30.01,8,1,0,0.00
2013-1-4,85.3,72.2,65.0,72.0,68.0,64.0,97,87,62,30.22,30.09,5,1,0,0.00
2013-1-5,75.1,69.1,65.7,70.0,67.0,65.0,97,93,82,30.24,30.14,7,1,0,0.05
2013-1-6,82.1,73.0,65.1,73.0,69.0,64.0,98,88,71,30.17,30.05,10,2,0,0.05
2013-1-7,73.2,69.8,66.4,71.0,68.2,66.0,97,94,89,30.15,30.06,0,0,0,0.24
2013-1-8,82.2,75.2,69.4,74.0,71.2,68.0,97,88,71,30.18,30.06,0,0,0,0.06
2013-1-9,82.0,76.9,73.4,73.0,71.3,70.0,95,83,73,30.27,30.14,0,0,0,0.00
2013-1-10,79.9,76.1,73.4,70.0,67.6,65.0,83,75,61,30.28,30.17,0,0,0,0.00
2013-1-11,80.2,75.5,72.0,72.0,68.4,67.0,87,79,70,30.24,30.14,0,0,0,0.02
2013-1-12,80.8,74.5,67.0,70.0,67.7,65.0,92,80,64,30.17,30.08,0,0,0,0.05
2013-1-13,81.1,75.0,67.2,69.0,66.5,65.0,93,75,62,30.12,30.06,0,0,0,0.00
2013-1-14,80.5,73.7,66.2,67.0,65.1,62.0,88,75,61,30.16,30.11,0,0,0,0.00
2013-1-15,79.2,73.8,65.8,69.0,67.2,64.0,93,80,68,30.12,30.04,0,0,0,0.01
2013-1-16,81.5,72.5,62.9,70.0,67.0,62.0,96,84,65,30.09,30.00,0,0,0,0.00
2013-1-17,81.8,71.4,60.9,73.0,66.5,54.0,98,85,69,30.08,29.96,10,1,0,0.04
2013-1-18,71.7,63.2,51.6,60.0,53.6,46.0,83,72,62,30.22,30.08,13,3,0,0.00
2013-1-19,70.4,67.9,64.4,68.0,64.2,59.0,97,88,68,30.20,30.08,5,0,0,0.21
2013-1-20,81.1,70.5,63.4,70.0,66.4,63.0,98,87,64,30.13,30.00,6,1,0,0.00
2013-1-21,81.1,71.6,64.8,71.0,67.4,64.0,98,87,67,30.05,29.94,7,1,0,0.01
2013-1-22,75.5,67.7,61.8,64.0,59.2,53.0,96,76,59,30.20,29.99,11,3,0,0.00
2013-1-23,74.2,66.5,58.9,59.0,55.6,53.0,87,69,51,30.29,30.19,8,2,0,0.00
2013-1-24,76.8,64.6,57.0,55.0,53.0,44.0,89,68,42,30.28,30.19,4,1,0,0.00
2013-1-25,77.0,65.5,56.1,60.0,55.7,51.0,87,72,50,30.28,30.16,6,1,0,0.00
2013-1-26,78.7,66.8,56.9,61.0,58.1,53.0,95,76,47,30.24,30.15,6,1,0,0.00
2013-1-27,78.1,69.6,60.5,64.0,60.6,58.0,93,75,52,30.27,30.19,12,2,0,0.00
2013-1-28,79.9,74.5,70.8,68.0,64.6,62.0,82,72,59,30.30,30.21,12,3,0,0.00
2013-1-29,79.1,73.6,67.7,70.0,67.3,65.0,93,81,72,30.21,30.11,9,3,0,0.00
2013-1-30,80.7,74.4,70.9,68.0,66.1,64.0,90,76,63,30.10,29.95,15,4,0,0.00
2013-1-31,71.4,65.7,57.0,70.0,58.7,43.0,96,79,53,30.18,29.93,9,2,0,0.00
2013-2-1,72.7,61.0,51.1,56.0,48.7,39.0,79,65,54,30.26,30.15,10,3,0,0.00
2013-2-2,74.8,62.8,52.8,55.0,49.6,39.0,90,64,44,30.25,30.11,7,1,0,0.00
2013-2-3,73.8,62.4,54.5,55.0,49.3,38.0,93,66,28,30.16,30.05,7,1,0,0.00
2013-2-4,76.8,62.0,48.7,56.0,49.3,42.0,92,66,32,30.14,30.02,7,1,0,0.00
2013-2-5,79.3,66.2,53.6,64.0,58.8,53.0,96,79,52,30.07,29.99,5,1,0,0.00
2013-2-6,79.0,69.1,59.9,67.0,61.4,-99.9,97,79,63,30.09,30.01,5,-10,0,0.00
2013-2-7,81.7,73.2,64.7,67.0,64.7,62.0,90,75,54,30.06,29.93,9,2,0,0.00
2013-2-8,82.3,73.4,67.2,70.0,67.5,65.0,95,82,63,30.02,29.89,4,1,0,0.00
2013-2-9,78.2,70.5,63.4,68.0,63.9,60.0,97,80,64,30.16,30.01,10,2,0,0.00
2013-2-10,74.1,71.3,67.5,64.0,62.1,59.0,77,73,68,30.25,30.14,13,4,0,0.00
2013-2-11,79.3,72.7,67.7,67.0,64.2,61.0,84,75,64,30.21,30.10,10,3,0,0.00
2013-2-12,87.6,73.7,62.8,71.0,66.4,62.0,97,80,44,30.10,29.96,9,2,0,0.00
2013-2-13,87.6,76.8,67.6,72.0,69.5,66.0,96,80,53,30.00,29.87,8,1,0,0.00
2013-2-14,80.4,69.9,62.3,72.0,67.4,61.0,96,92,75,30.00,29.85,11,2,0,1.58
2013-2-15,71.5,66.1,62.8,68.0,64.5,62.0,97,94,82,30.01,29.92,4,1,0,0.31
2013-2-16,71.9,64.6,54.4,64.0,57.0,46.0,97,78,46,30.07,29.86,15,3,0,0.00
2013-2-17,57.9,50.9,43.6,46.0,29.8,18.0,73,47,25,30.30,30.07,10,4,0,0.00
2013-2-18,69.6,58.6,45.0,57.0,45.1,33.0,72,61,48,30.31,30.20,12,3,0,0.00
2013-2-19,78.4,70.5,57.7,67.0,61.4,53.0,92,73,62,30.19,30.07,12,3,0,0.03
2013-2-20,79.4,70.2,62.8,68.0,64.6,60.0,98,84,56,30.11,30.00,6,1,0,0.01
2013-2-21,81.3,72.3,63.6,69.0,65.9,63.0,97,81,61,30.08,29.98,9,2,0,0.00
2013-2-22,82.3,75.6,70.2,72.0,69.9,66.0,90,83,70,30.09,30.00,11,4,0,0.00
2013-2-23,84.3,76.5,70.5,73.0,70.8,68.0,96,83,67,30.03,29.90,11,4,0,0.55
2013-2-24,90.7,77.3,70.4,75.0,70.9,66.0,97,82,46,29.99,29.88,9,1,0,0.01
2013-2-25,85.0,75.6,68.8,74.0,70.9,67.0,95,85,65,29.90,29.80,12,3,0,0.05
2013-2-26,88.4,79.3,74.3,73.0,71.2,69.0,92,77,56,29.88,29.79,10,3,0,0.00
2013-2-27,76.8,70.0,63.5,74.0,65.8,62.0,96,87,68,29.95,29.85,6,1,0,0.63
2013-2-28,69.6,63.7,59.2,64.0,55.4,50.0,95,75,50,29.99,29.90,7,1,0,0.00
2013-3-1,64.3,61.6,57.9,58.0,52.1,47.0,84,72,60,29.98,29.89,5,1,0,0.00
2013-3-2,65.0,57.6,51.4,49.0,42.9,36.0,76,59,43,30.03,29.95,13,4,0,0.00
2013-3-3,60.6,53.9,49.3,47.0,43.0,40.0,88,68,50,30.14,29.95,8,2,0,0.00
2013-3-4,68.5,53.9,41.7,47.0,37.1,29.0,85,57,26,30.20,30.11,12,2,0,0.00
2013-3-5,77.5,63.0,47.9,58.0,52.8,45.0,93,72,47,30.17,30.07,10,2,0,0.00
2013-3-6,77.5,64.7,52.4,64.0,52.3,31.0,94,68,31,30.09,29.94,15,2,0,0.01
2013-3-7,72.6,58.5,46.1,56.0,45.1,36.0,90,63,40,30.18,30.06,7,2,0,0.00
2013-3-8,76.0,62.5,51.4,54.0,50.7,44.0,93,69,32,30.20,30.09,5,1,0,0.00
2013-3-9,76.1,64.4,53.4,58.0,53.8,50.0,92,70,50,30.18,30.09,8,2,0,0.00
2013-3-10,75.8,69.9,64.0,61.0,56.7,53.0,74,63,52,30.14,30.06,9,3,0,0.00
2013-3-11,78.0,71.8,68.0,63.0,60.8,59.0,78,69,54,30.10,29.95,11,3,0,0.00
2013-3-12,82.3,74.0,69.6,70.0,66.0,62.0,87,76,63,29.99,29.90,11,2,0,0.00
2013-3-13,75.1,65.6,55.9,66.0,54.6,44.0,93,70,35,30.11,29.97,10,2,0,0.00
2013-3-14,71.6,60.7,52.8,54.0,46.8,39.0,89,64,32,30.20,30.08,10,3,0,0.00
2013-3-15,72.8,62.1,51.1,55.0,50.0,45.0,82,66,42,30.25,30.14,5,2,0,0.00
2013-3-16,76.3,64.8,53.1,58.0,54.2,52.0,97,71,45,30.19,30.08,7,2,0,0.00
2013-3-17,77.0,67.6,57.2,62.0,58.7,55.0,94,75,54,30.14,30.02,12,2,0,0.00
2013-3-18,80.5,71.5,64.1,70.0,65.7,61.0,96,82,67,30.06,29.95,12,3,0,0.25
2013-3-19,79.7,72.6,67.6,70.0,67.8,66.0,96,85,66,30.00,29.80,9,1,0,0.00
2013-3-20,87.1,73.1,63.8,70.0,65.4,60.0,98,79,49,29.96,29.80,5,1,0,0.00
2013-3-21,75.1,66.6,57.9,62.0,53.8,39.0,93,67,28,29.94,29.82,6,2,0,0.00
2013-3-22,76.3,67.7,55.2,70.0,60.5,54.0,96,79,58,30.00,29.89,14,3,0,0.01
2013-3-23,88.7,77.7,71.4,75.0,71.9,69.0,97,83,54,29.98,29.79,15,2,0,0.03
2013-3-24,90.4,79.7,72.5,74.0,72.2,67.0,96,79,55,29.88,29.68,9,3,0,0.02
2013-3-25,77.5,73.0,64.4,73.0,60.5,43.0,95,68,37,29.98,29.74,8,2,0,0.01
2013-3-26,65.6,60.0,51.9,45.0,39.3,34.0,68,48,33,30.20,29.98,10,4,0,0.00
2013-3-27,68.6,56.7,44.8,48.0,41.8,35.0,80,59,36,30.25,30.16,9,2,0,0.00
2013-3-28,73.7,59.8,48.4,51.0,45.0,36.0,84,61,31,30.26,30.16,8,2,0,0.00
2013-3-29,74.7,64.4,54.5,54.0,50.2,45.0,76,61,44,30.28,30.19,7,1,0,0.00
2013-3-30,75.9,66.5,55.7,57.0,53.3,47.0,93,65,39,30.26,30.16,6,1,0,0.00
2013-3-31,80.6,70.1,58.6,67.0,61.5,55.0,94,75,56,30.18,30.04,10,3,0,0.00
2013-4-1,89.4,77.1,68.3,72.0,67.0,63.0,93,73,41,30.05,29.93,8,2,0,0.00
2013-4-2,86.0,73.4,65.5,68.0,66.0,64.0,97,79,50,30.07,29.98,8,1,0,0.00
2013-4-3,84.0,75.8,68.1,70.0,68.2,66.0,93,78,60,30.05,29.98,9,3,0,0.00
2013-4-4,83.9,75.3,68.8,74.0,70.1,67.0,95,84,70,30.04,29.89,15,3,0,0.86
2013-4-5,72.0,68.4,64.8,71.0,66.2,63.0,97,92,85,29.98,29.81,7,1,0,0.52
2013-4-6,77.4,68.1,58.1,66.0,61.3,57.0,95,80,60,30.07,29.92,15,2,0,0.01
2013-4-7,77.2,73.4,69.3,65.0,63.4,62.0,80,71,63,30.12,30.01,12,2,0,0.00
2013-4-8,82.4,72.7,61.5,65.0,62.2,59.0,95,71,45,30.12,30.04,7,1,0,0.00
2013-4-9,81.4,75.3,69.1,69.0,67.0,65.0,87,76,61,30.14,30.04,9,2,0,0.00
2013-4-10,83.7,77.5,72.5,73.0,70.1,66.0,85,78,67,30.09,29.98,12,4,0,0.00
2013-4-11,83.6,78.2,74.4,74.0,72.0,71.0,89,81,70,30.01,29.89,15,5,0,0.00
2013-4-12,87.1,79.4,73.7,78.0,74.4,70.0,91,85,70,29.94,29.85,10,4,0,2.91
2013-4-13,86.8,76.2,72.2,76.0,72.8,69.0,95,89,69,29.96,29.87,7,1,0,0.16
2013-4-14,86.4,79.3,71.6,76.0,73.9,70.0,97,84,65,29.96,29.88,15,3,0,0.01
2013-4-15,88.2,77.6,70.4,77.0,73.3,69.0,96,87,68,30.05,29.91,12,2,0,1.24
2013-4-16,86.1,77.6,70.5,76.0,72.8,69.0,97,85,68,30.11,30.01,12,2,0,0.01
2013-4-17,84.0,77.6,71.9,71.0,69.3,68.0,91,76,61,30.10,30.01,8,2,0,0.00
2013-4-18,86.1,79.9,73.4,74.0,71.4,68.0,87,76,61,30.05,29.97,9,3,0,0.00
2013-4-19,87.7,79.5,76.9,75.0,69.2,-99.9,92,74,57,30.04,29.95,14,-16,0,0.01
2013-4-20,91.3,78.6,72.6,77.0,73.3,70.0,96,85,57,30.07,29.94,7,1,0,0.92
2013-4-21,85.2,77.1,71.1,75.0,72.0,70.0,96,85,68,30.08,29.97,11,2,0,0.00
2013-4-22,85.8,75.1,69.7,72.0,70.1,68.0,94,85,58,30.04,29.91,11,1,0,0.45
2013-4-23,82.7,74.8,66.9,70.0,66.3,62.0,96,76,58,30.08,29.94,12,3,0,0.01
2013-4-24,84.0,76.3,67.0,67.0,64.2,61.0,88,67,51,30.12,30.02,11,2,0,0.00
2013-4-25,82.8,76.0,68.5,65.0,63.1,61.0,83,65,50,30.18,30.06,8,2,0,0.00
2013-4-26,82.8,75.0,65.3,67.0,64.8,62.0,91,71,56,30.21,30.10,12,2,0,0.00
2013-4-27,81.9,76.5,69.4,68.0,64.6,62.0,80,67,52,30.19,30.07,10,3,0,0.00
2013-4-28,83.0,76.8,72.2,67.0,64.4,63.0,75,66,54,30.11,29.98,11,3,0,0.00
2013-4-29,83.3,77.4,72.7,72.0,68.6,63.0,85,74,64,30.02,29.92,11,4,0,0.00
2013-4-30,85.4,76.3,70.9,73.0,70.7,68.0,95,83,59,29.98,29.91,8,1,0,0.13
2013-5-1,85.7,75.3,70.3,74.0,71.0,69.0,97,87,65,29.99,29.91,8,1,0,0.32
2013-5-2,78.8,70.5,67.1,74.0,67.9,-99.9,98,93,84,29.93,29.78,8,-8,0,1.27
2013-5-3,87.4,75.1,68.1,73.0,69.5,67.0,97,84,56,29.80,29.67,6,1,0,0.24
2013-5-4,87.5,76.6,67.8,71.0,68.6,66.0,97,78,53,29.79,29.68,8,2,0,0.01
2013-5-5,80.9,73.4,65.2,68.0,63.2,54.0,94,72,40,29.92,29.75,13,2,0,0.00
2013-5-6,85.5,72.1,59.5,65.0,61.8,58.0,96,72,45,30.00,29.90,5,1,0,0.00
2013-5-7,86.5,73.4,61.7,65.0,61.1,58.0,91,67,41,30.05,29.96,8,1,0,0.00
2013-5-8,88.7,75.2,62.1,67.0,61.1,56.0,93,65,33,30.12,30.03,6,1,0,0.00
2013-5-9,88.2,77.3,65.2,74.0,67.8,61.0,88,74,52,30.13,30.05,9,1,0,0.00
2013-5-10,89.6,80.7,72.9,75.0,72.6,70.0,94,77,53,30.12,30.00,12,2,0,0.00
2013-5-11,88.2,79.6,73.6,77.0,73.8,70.0,97,83,64,30.06,29.97,13,3,0,0.20
2013-5-12,92.5,78.6,71.0,76.0,72.5,69.0,97,83,51,30.05,29.93,7,1,0,0.59
2013-5-13,85.9,78.0,70.8,73.0,70.1,66.0,98,78,55,30.08,29.98,7,1,0,0.01
2013-5-14,82.1,75.7,69.0,67.0,61.9,57.0,86,64,47,30.16,30.05,11,2,0,0.00
2013-5-15,82.0,75.2,66.6,66.0,61.9,59.0,83,64,46,30.18,30.08,10,2,0,0.00
2013-5-16,84.3,75.9,65.5,65.0,62.9,59.0,91,65,50,30.10,30.03,12,2,0,0.00
2013-5-17,88.7,77.4,69.1,73.0,69.7,64.0,92,78,53,30.08,30.00,10,1,0,0.01
2013-5-18,85.9,79.1,72.9,76.0,72.9,70.0,97,82,68,30.09,30.02,11,2,0,0.00
2013-5-19,87.1,79.4,71.7,72.0,70.2,67.0,94,74,52,30.09,29.99,9,2,0,0.00
2013-5-20,79.7,75.0,69.7,75.0,71.9,68.0,96,90,80,30.07,29.96,7,1,0,5.35
2013-5-21,84.0,76.3,70.3,75.0,71.5,69.0,97,85,65,30.04,29.92,13,2,0,0.06
2013-5-22,87.8,76.5,71.0,76.0,72.3,69.0,95,87,65,29.96,29.88,12,1,0,0.81
2013-5-23,92.4,81.6,73.3,76.0,73.2,69.0,97,78,47,30.00,29.90,5,1,0,0.01
2013-5-24,93.3,82.6,75.3,77.0,73.6,66.0,97,76,48,30.04,29.93,6,1,0,0.00
2013-5-25,86.0,80.4,75.2,75.0,69.0,65.0,91,69,52,30.15,30.03,11,3,0,0.00
2013-5-26,83.7,77.8,69.5,69.0,65.5,61.0,85,67,57,30.16,30.09,9,2,0,0.00
2013-5-27,83.7,78.7,74.1,73.0,70.4,64.0,90,76,67,30.14,30.06,15,3,0,0.02
2013-5-28,83.1,78.4,74.7,74.0,72.9,71.0,91,83,73,30.10,30.03,15,4,0,0.03
2013-5-29,81.6,74.6,71.1,74.0,69.9,-99.9,96,87,77,30.09,30.02,18,-7,0,0.22
2013-5-30,82.8,78.3,71.6,75.0,72.7,69.0,94,83,74,30.06,29.99,23,5,0,0.18
2013-5-31,83.2,78.4,75.1,76.0,73.9,71.0,94,86,76,30.05,29.99,18,4,0,0.33
2013-6-1,84.9,77.4,73.9,77.0,74.6,72.0,96,91,75,30.01,29.95,10,1,0,1.09
2013-6-2,90.6,79.5,72.3,78.0,74.2,72.0,98,85,62,29.99,29.91,8,1,0,0.03
2013-6-3,88.0,79.2,72.9,77.0,74.5,72.0,97,86,65,30.02,29.90,6,1,0,1.30
2013-6-4,86.2,78.8,73.7,77.0,74.8,73.0,97,88,65,30.04,29.94,6,1,0,0.10
2013-6-5,84.2,80.8,78.6,78.0,76.5,75.0,91,87,78,30.01,29.89,6,2,0,0.04
2013-6-6,88.7,80.0,74.0,79.0,75.9,72.0,96,87,72,29.90,29.77,19,4,0,1.28
2013-6-7,92.3,78.3,73.8,79.0,74.4,73.0,97,88,61,29.98,29.83,6,1,0,0.91
2013-6-8,88.8,78.3,74.5,80.0,74.0,-99.9,97,89,74,30.09,29.95,9,-10,0,0.19
2013-6-9,87.9,82.1,77.6,77.0,75.5,74.0,94,81,66,30.10,30.02,14,3,0,0.00
2013-6-10,89.5,83.5,79.4,78.0,76.5,75.0,88,80,67,30.08,30.00,11,2,0,0.00
2013-6-11,89.6,81.9,77.0,80.0,77.1,75.0,95,86,64,30.09,30.00,6,1,0,0.94
2013-6-12,89.8,79.8,74.8,79.0,76.3,72.0,97,89,65,30.07,30.00,4,0,0,0.36
2013-6-13,91.7,79.9,74.1,80.0,74.9,72.0,98,85,58,30.04,29.93,5,0,0,0.17
2013-6-14,95.1,82.0,74.1,77.0,73.6,71.0,96,77,49,29.96,29.87,8,1,0,0.00
2013-6-15,91.5,82.7,75.0,77.0,74.9,72.0,96,78,55,30.04,29.92,9,1,0,0.00
2013-6-16,91.9,83.5,75.4,78.0,75.9,74.0,96,79,57,30.08,30.01,7,2,0,0.00
2013-6-17,92.7,84.7,77.2,78.0,76.2,75.0,94,76,58,30.07,30.00,8,2,0,0.00
2013-6-18,92.3,84.9,77.2,77.0,76.1,74.0,95,76,58,30.06,29.97,10,2,0,0.00
2013-6-19,93.1,84.4,78.1,79.0,76.2,74.0,94,77,56,30.04,29.97,9,2,0,0.00
2013-6-20,94.2,82.5,75.3,77.0,73.8,69.0,89,76,54,30.08,30.01,8,2,0,0.00
2013-6-21,92.1,83.6,76.5,77.0,74.3,72.0,93,75,54,30.10,30.02,11,2,0,0.00
2013-6-22,91.3,84.1,77.0,76.0,74.3,72.0,92,73,57,30.09,30.03,9,2,0,0.00
2013-6-23,89.4,83.6,77.9,77.0,74.5,72.0,86,75,60,30.12,30.04,13,3,0,0.00
2013-6-24,89.9,83.1,75.3,76.0,74.5,72.0,94,76,62,30.15,30.07,15,3,0,0.02
2013-6-25,90.5,83.4,77.1,78.0,75.6,73.0,90,78,64,30.12,30.03,12,3,0,0.00
2013-6-26,90.9,83.4,77.2,78.0,75.8,74.0,93,78,58,30.07,30.00,9,2,0,0.09
2013-6-27,88.8,82.2,77.3,78.0,75.7,73.0,92,81,67,30.05,29.95,9,1,0,0.10
2013-6-28,92.8,81.9,73.3,79.0,74.9,70.0,96,81,58,29.99,29.85,10,2,0,0.18
2013-6-29,94.7,80.0,74.5,78.0,71.9,-99.9,96,84,51,29.91,29.81,8,-10,0,0.04
2013-6-30,90.6,80.0,74.4,78.0,75.4,72.0,95,86,63,29.94,29.84,10,1,0,1.73
2013-7-1,89.3,81.6,76.7,78.0,75.9,71.0,95,83,66,30.03,29.91,15,3,0,0.00
2013-7-2,89.6,82.8,77.5,79.0,76.8,73.0,94,82,68,30.10,29.97,10,3,0,0.01
2013-7-3,88.3,82.4,77.5,79.0,75.9,73.0,92,81,67,30.12,30.04,14,4,0,0.06
2013-7-4,89.1,83.3,76.4,78.0,75.9,72.0,93,79,67,30.15,30.06,13,4,0,0.04
2013-7-5,84.5,80.0,76.0,78.0,76.0,73.0,96,87,77,30.13,30.04,14,2,0,1.04
2013-7-6,87.8,82.6,79.4,77.0,75.4,74.0,87,79,66,30.10,30.02,12,4,0,0.13
2013-7-7,87.9,83.1,78.6,78.0,75.5,74.0,87,78,66,30.09,30.02,11,3,0,0.03
2013-7-8,89.7,83.1,77.8,76.0,74.5,73.0,87,76,60,30.13,30.06,8,2,0,0.00
2013-7-9,89.1,81.7,75.1,76.0,73.5,70.0,93,77,59,30.13,30.04,9,1,0,0.00
2013-7-10,86.0,78.9,71.7,76.0,73.8,70.0,96,85,69,30.08,29.99,9,1,0,0.24
2013-7-11,92.1,82.5,75.8,78.0,75.1,72.0,95,79,52,30.03,29.93,9,1,0,0.00
2013-7-12,92.6,81.0,75.9,78.0,74.7,71.0,96,82,56,29.96,29.89,5,1,0,0.46
2013-7-13,88.2,76.1,72.8,77.0,73.1,71.0,97,91,66,30.02,29.91,5,1,0,1.64
2013-7-14,89.7,78.6,72.2,76.0,73.5,71.0,96,85,60,30.08,29.98,13,2,0,0.27
2013-7-15,90.3,80.2,72.8,77.0,73.5,71.0,97,81,56,30.08,30.00,7,1,0,0.02
2013-7-16,83.6,78.1,72.2,76.0,72.5,70.0,94,83,66,30.13,30.04,17,3,0,0.24
2013-7-17,82.3,76.4,72.9,76.0,73.3,71.0,96,90,77,30.14,30.03,8,1,0,0.97
2013-7-18,86.8,77.1,72.4,78.0,74.0,70.0,97,90,74,30.12,30.04,11,2,0,0.60
2013-7-19,89.2,81.0,73.9,80.0,76.2,73.0,97,86,67,30.12,30.03,12,2,0,0.00
2013-7-20,86.0,80.9,75.5,80.0,77.1,74.0,96,88,78,30.10,30.03,9,2,0,0.34
2013-7-21,91.1,81.0,75.0,80.0,76.6,73.0,97,87,68,30.14,30.04,8,1,0,0.02
2013-7-22,92.5,83.8,76.2,78.0,75.9,73.0,94,78,57,30.13,30.06,8,2,0,0.00
2013-7-23,96.7,85.4,76.3,79.0,75.6,72.0,95,74,46,30.10,29.96,7,1,0,0.00
2013-7-24,95.6,84.8,76.8,78.0,74.7,70.0,94,73,52,30.02,29.90,5,1,0,0.00
2013-7-25,94.4,84.6,75.8,77.0,75.5,73.0,94,75,55,30.01,29.91,6,1,0,0.00
2013-7-26,94.3,83.2,77.5,78.0,76.1,74.0,92,80,56,30.02,29.93,7,1,0,0.00
2013-7-27,92.9,79.8,75.1,79.0,75.9,74.0,96,88,60,30.01,29.92,9,1,0,1.02
2013-7-28,86.7,78.8,74.0,79.0,74.2,-99.9,97,88,75,30.06,29.94,4,-10,0,0.24
2013-7-29,91.2,81.8,75.8,79.0,76.6,74.0,96,85,65,30.13,30.01,6,1,0,0.00
2013-7-30,91.0,84.2,74.0,80.0,77.2,72.0,96,80,66,30.15,30.07,8,2,0,1.71
2013-7-31,91.0,84.5,78.0,79.0,76.4,73.0,93,77,61,30.10,30.00,19,2,0,0.00
2013-8-1,89.1,83.0,78.3,77.0,75.0,74.0,88,77,62,30.05,29.93,8,2,0,0.00
2013-8-2,93.1,82.3,76.6,78.0,74.5,70.0,94,78,56,30.05,29.91,4,1,0,0.00
2013-8-3,87.4,78.3,72.4,79.0,74.7,70.0,95,89,75,30.15,30.01,7,0,0,0.79
2013-8-4,97.3,83.0,75.6,79.0,75.7,73.0,96,80,50,30.09,29.97,5,0,0,0.03
2013-8-5,91.3,81.7,76.5,80.0,76.2,73.0,95,84,64,30.03,29.94,4,1,0,0.03
2013-8-6,95.6,82.8,76.1,79.0,76.3,72.0,96,82,57,29.97,29.88,7,1,0,0.00
2013-8-7,91.2,83.7,76.7,79.0,76.2,75.0,95,79,62,29.97,29.89,9,2,0,0.00
2013-8-8,91.4,85.2,81.2,78.0,76.2,74.0,85,75,58,30.01,29.92,13,3,0,0.00
2013-8-9,89.7,82.8,78.3,78.0,74.9,71.0,88,77,64,30.05,29.94,13,3,0,0.10
2013-8-10,92.5,84.9,78.8,78.0,76.4,74.0,88,76,60,30.11,30.02,11,3,0,0.00
2013-8-11,91.7,85.9,80.6,78.0,77.0,75.0,86,75,62,30.12,30.05,12,2,0,0.00
2013-8-12,91.4,83.8,76.7,77.0,75.7,73.0,93,77,60,30.10,30.00,9,1,0,0.00
2013-8-13,92.9,85.3,79.3,79.0,75.9,74.0,91,75,54,30.04,29.95,11,2,0,0.00
2013-8-14,92.9,84.1,76.4,78.0,75.4,74.0,95,77,57,30.02,29.92,8,2,0,0.00
2013-8-15,89.5,81.8,76.0,78.0,76.1,73.0,93,83,65,30.05,29.95,8,2,0,0.00
2013-8-16,92.3,85.2,78.7,80.0,77.9,75.0,92,79,60,30.04,29.97,9,2,0,0.00
2013-8-17,91.6,85.8,80.8,80.0,78.3,76.0,90,79,64,30.07,29.99,8,2,0,0.00
2013-8-18,90.4,85.0,81.2,80.0,77.6,76.0,86,79,67,30.07,29.99,10,3,0,0.05
2013-8-19,90.9,85.3,80.5,79.0,77.5,76.0,89,78,64,30.06,29.96,9,2,0,0.00
2013-8-20,91.3,84.4,76.1,78.0,76.5,72.0,94,78,58,30.05,29.97,13,2,0,0.19
2013-8-21,89.9,84.0,79.7,80.0,77.9,76.0,91,82,68,30.07,29.99,12,3,0,0.09
2013-8-22,91.6,84.9,76.3,80.0,77.4,73.0,93,79,66,30.05,29.95,11,2,0,0.02
2013-8-23,91.3,83.3,78.9,80.0,77.0,75.0,90,81,65,30.01,29.93,9,1,0,0.17
2013-8-24,93.0,82.3,73.7,79.0,72.5,-99.9,95,77,56,30.11,29.96,16,-19,0,0.98
2013-8-25,88.0,80.6,75.4,79.0,75.6,73.0,96,85,69,30.14,30.02,6,1,0,0.12
2013-8-26,89.9,80.4,72.8,79.0,75.0,71.0,95,84,64,30.11,30.00,10,1,0,0.32
2013-8-27,87.4,78.9,73.3,76.0,73.6,71.0,96,84,61,30.04,29.96,5,0,0,0.01
2013-8-28,88.9,79.7,74.3,78.0,74.6,71.0,95,85,62,30.03,29.94,7,1,0,0.38
2013-8-29,92.1,82.3,73.4,78.0,75.3,70.0,96,80,61,30.02,29.92,11,2,0,0.03
2013-8-30,93.3,84.1,76.0,78.0,75.2,73.0,96,76,52,30.00,29.89,8,1,0,0.00
2013-8-31,91.4,80.0,74.2,80.0,73.4,-99.9,95,83,62,29.97,29.90,7,-10,0,0.23
2013-9-1,90.6,80.3,74.1,79.0,75.9,73.0,97,87,63,29.99,29.92,6,1,0,0.01
2013-9-2,95.4,79.4,73.5,80.0,75.6,72.0,98,89,56,30.03,29.93,6,0,0,1.50
2013-9-3,91.0,81.2,72.8,80.0,75.9,72.0,98,85,61,30.02,29.92,5,0,0,0.02
2013-9-4,86.6,82.0,78.1,80.0,77.6,76.0,94,86,77,30.06,29.94,6,1,0,0.00
2013-9-5,93.0,84.7,78.8,80.0,77.6,76.0,94,80,62,30.06,29.98,8,2,0,0.00
2013-9-6,93.9,84.7,78.4,80.0,77.2,74.0,95,79,54,30.03,29.91,7,1,0,0.09
2013-9-7,88.1,78.3,74.4,79.0,74.6,71.0,95,88,66,29.97,29.89,6,1,0,0.22
2013-9-8,91.1,78.8,73.1,79.0,75.1,72.0,97,89,64,29.94,29.85,6,0,0,0.44
2013-9-9,89.0,81.6,74.0,78.0,74.7,72.0,97,80,63,29.99,29.89,11,2,0,0.01
2013-9-10,87.7,81.5,76.3,79.0,75.8,74.0,94,83,68,30.03,29.94,12,2,0,0.49
2013-9-11,82.8,78.5,74.6,77.0,75.1,73.0,95,89,79,30.05,29.95,6,1,0,1.63
2013-9-12,86.0,80.3,76.0,78.0,76.2,73.0,96,87,72,30.00,29.88,7,0,0,0.00
2013-9-13,94.2,82.8,74.4,80.0,75.7,73.0,97,80,54,29.89,29.80,7,1,0,0.35
2013-9-14,93.3,84.0,75.5,80.0,75.5,73.0,97,77,52,29.96,29.81,6,1,0,0.00
2013-9-15,87.7,80.8,77.1,80.0,76.2,70.0,93,86,73,30.04,29.91,8,1,0,0.10
2013-9-16,85.6,79.8,72.8,79.0,76.6,70.0,97,89,79,30.04,29.95,6,1,0,0.98
2013-9-17,81.7,78.9,75.6,77.0,75.6,74.0,97,89,82,30.03,29.90,8,1,0,0.66
2013-9-18,88.3,79.8,74.8,78.0,75.2,73.0,95,86,65,30.00,29.90,8,1,0,0.13
2013-9-19,88.6,80.0,74.0,78.0,75.0,72.0,97,85,69,29.99,29.91,8,2,0,0.37
2013-9-20,87.6,80.4,71.9,75.0,71.7,69.0,95,76,57,29.98,29.89,7,1,0,0.00
2013-9-21,89.2,80.5,72.1,75.0,73.2,71.0,95,79,62,29.91,29.77,8,1,0,0.00
2013-9-22,94.2,83.9,75.8,78.0,75.3,72.0,95,77,48,29.86,29.75,5,1,0,0.00
2013-9-23,88.3,80.7,77.0,80.0,77.1,75.0,96,89,71,29.96,29.85,11,0,0,0.22
2013-9-24,95.3,81.3,74.6,82.0,76.0,73.0,98,85,57,29.96,29.86,6,1,0,0.57
2013-9-25,90.3,80.7,73.5,80.0,75.2,72.0,95,84,60,29.91,29.79,9,1,0,0.00
2013-9-26,91.9,80.8,75.8,81.0,77.1,74.0,96,89,68,29.86,29.78,9,1,0,0.21
2013-9-27,90.9,80.7,74.1,77.0,74.1,68.0,97,81,48,29.91,29.81,7,1,0,0.00
2013-9-28,87.2,79.4,73.6,76.0,73.6,71.0,96,83,64,29.95,29.86,8,1,0,0.15
2013-9-29,88.8,79.8,71.7,75.0,71.7,70.0,97,78,57,29.95,29.87,7,1,0,0.00
2013-9-30,89.8,80.7,72.0,74.0,72.0,70.0,96,76,56,29.99,29.89,9,1,0,0.00
2013-10-1,88.2,82.2,74.6,76.0,73.3,71.0,91,75,61,30.02,29.94,11,2,0,0.00
2013-10-2,85.8,82.2,79.0,75.0,73.5,72.0,82,75,65,30.03,29.95,7,2,0,0.00
2013-10-3,88.3,81.8,77.4,76.0,74.0,72.0,86,77,63,30.04,29.94,7,1,0,0.00
2013-10-4,88.9,80.7,73.9,75.0,72.6,71.0,95,77,57,30.05,29.97,10,1,0,0.00
2013-10-5,89.5,78.4,71.5,75.0,68.3,-99.9,95,76,55,30.02,29.92,7,-20,0,0.00
2013-10-6,90.9,81.2,73.6,77.0,73.2,71.0,95,78,55,29.95,29.86,7,1,0,0.00
2013-10-7,93.3,79.6,73.1,76.0,73.3,71.0,95,83,51,29.89,29.80,7,1,0,0.51
2013-10-8,92.5,81.9,75.5,79.0,74.7,71.0,97,80,58,29.92,29.84,5,1,0,0.01
2013-10-9,85.1,77.9,72.5,77.0,73.4,70.0,94,86,73,29.98,29.89,12,2,0,0.00
2013-10-10,87.3,78.0,70.9,75.0,70.1,-99.9,96,79,61,30.00,29.93,9,2,0,0.00
2013-10-11,87.0,77.9,69.7,72.0,69.0,67.0,95,75,56,30.00,29.93,7,1,0,0.00
2013-10-12,86.9,77.4,68.0,71.0,68.9,66.0,95,77,54,30.02,29.94,5,1,0,0.00
2013-10-13,86.2,77.2,70.2,72.0,67.9,64.0,95,75,49,30.04,29.95,11,1,0,0.00
2013-10-14,85.8,75.7,69.7,71.0,65.6,-99.9,94,76,57,30.00,29.89,7,-20,0,0.00
2013-10-15,87.4,77.8,70.2,73.0,70.7,69.0,95,80,58,29.94,29.86,5,1,0,0.00
2013-10-16,87.0,77.4,71.1,73.0,70.5,69.0,95,80,58,29.94,29.88,6,1,0,0.00
2013-10-17,88.3,78.6,70.7,75.0,71.3,69.0,96,80,58,29.96,29.88,8,1,0,0.00
2013-10-18,88.4,79.6,71.1,75.0,72.5,70.0,96,80,61,29.98,29.89,6,1,0,0.00
2013-10-19,90.8,81.8,72.5,76.0,73.3,71.0,95,76,57,29.95,29.87,8,2,0,0.00
2013-10-20,90.5,81.8,76.0,78.0,75.7,74.0,96,82,59,29.95,29.86,6,1,0,0.00
2013-10-21,91.4,82.5,75.5,78.0,75.7,74.0,96,81,60,29.99,29.89,10,2,0,0.00
2013-10-22,92.7,83.0,75.2,78.0,75.9,74.0,96,80,58,29.95,29.82,6,1,0,0.00
2013-10-23,88.6,80.1,75.5,76.0,73.7,69.0,95,81,64,29.95,29.81,6,1,2,0.00
2013-10-24,81.0,76.3,71.4,70.0,65.9,63.0,83,71,63,30.08,29.92,7,2,0,0.00
2013-10-25,82.4,75.3,67.3,67.0,64.6,63.0,87,70,55,30.14,30.05,11,2,0,0.00
2013-10-26,84.2,73.7,66.1,67.0,64.4,63.0,89,74,51,30.14,30.04,6,1,0,0.00
2013-10-27,84.4,73.5,65.0,67.0,64.0,61.0,90,73,52,30.08,30.01,6,1,0,0.00
2013-10-28,84.9,74.6,65.4,69.0,65.5,62.0,95,75,47,30.13,30.04,7,1,0,0.00
2013-10-29,84.4,74.5,67.1,72.0,64.2,-99.9,94,75,59,30.16,30.08,13,-19,0,0.00
2013-10-30,83.5,78.6,73.1,70.0,67.7,66.0,81,69,59,30.18,30.07,13,2,0,0.00
2013-10-31,84.6,79.5,75.3,73.0,71.1,66.0,86,76,65,30.10,29.99,11,2,0,0.01
2013-11-1,88.1,81.0,74.5,75.0,73.4,71.0,89,78,62,30.00,29.87,8,2,0,0.00
2013-11-2,89.9,79.0,71.2,75.0,71.0,63.0,97,78,49,29.93,29.79,6,1,0,0.00
2013-11-3,80.7,73.9,67.7,66.0,63.3,61.0,87,70,57,30.01,29.88,9,3,0,0.00
2013-11-4,80.0,76.4,72.6,69.0,64.5,59.0,83,67,52,30.06,30.00,15,4,0,0.02
2013-11-5,82.5,79.0,76.6,72.0,69.3,66.0,82,72,62,30.08,30.00,15,6,0,0.00
2013-11-6,84.1,78.4,71.1,71.0,69.2,68.0,91,74,59,30.05,29.98,14,2,0,0.00
2013-11-7,86.2,76.4,69.2,73.0,69.9,67.0,96,81,57,30.00,29.91,4,1,0,0.00
2013-11-8,84.0,76.2,69.8,74.0,70.6,67.0,95,83,62,30.02,29.93,12,3,0,0.54
2013-11-9,78.2,75.8,73.2,73.0,71.7,71.0,94,87,81,30.10,30.00,13,4,0,0.25
2013-11-10,83.2,78.5,75.7,74.0,71.2,69.0,83,78,69,30.11,30.03,8,2,0,0.00
2013-11-11,82.8,76.3,69.8,72.0,68.9,67.0,92,78,67,30.11,30.04,11,2,0,0.00
2013-11-12,85.1,76.7,69.1,72.0,68.5,67.0,94,77,58,30.07,29.95,6,1,0,0.00
2013-11-13,75.6,71.7,68.7,68.0,63.7,56.0,87,76,64,30.20,29.98,10,4,0,0.00
2013-11-14,76.5,72.5,68.9,62.0,58.5,55.0,70,62,54,30.22,30.13,12,4,0,0.00
2013-11-15,80.8,76.7,72.8,70.0,67.3,62.0,76,73,65,30.13,30.02,13,4,0,0.00
2013-11-16,78.9,76.9,73.3,73.0,70.7,66.0,90,81,71,30.08,30.01,8,2,0,0.14
2013-11-17,83.5,78.4,72.3,74.0,71.4,69.0,92,79,66,30.07,29.99,12,2,0,0.00
2013-11-18,85.7,77.2,71.5,75.0,71.9,69.0,96,84,64,30.01,29.91,5,0,0,0.01
2013-11-19,85.6,75.4,71.7,75.0,71.7,70.0,96,89,65,29.93,29.84,5,1,0,0.10
2013-11-20,86.7,76.1,69.1,75.0,72.2,68.0,97,88,66,30.05,29.91,4,0,0,0.05
2013-11-21,81.5,75.5,71.5,75.0,72.6,70.0,97,91,79,30.12,30.03,8,2,0,2.14
2013-11-22,81.4,77.5,75.3,73.0,70.7,69.0,85,80,72,30.14,30.06,14,4,0,0.00
2013-11-23,82.0,76.6,71.5,72.0,70.7,69.0,90,82,71,30.07,29.96,11,2,0,0.00
2013-11-24,81.4,73.1,67.4,71.0,67.6,64.0,96,83,64,30.13,29.98,10,3,0,0.07
2013-11-25,75.5,73.0,71.5,69.0,65.1,60.0,87,76,68,30.19,30.04,19,5,0,0.02
2013-11-26,83.9,77.4,71.5,76.0,73.1,69.0,94,86,73,30.04,29.82,14,4,0,0.04
2013-11-27,77.7,71.2,57.5,75.0,65.2,52.0,97,82,58,30.10,29.77,10,3,0,0.51
2013-11-28,73.6,62.0,47.2,59.0,52.8,45.0,91,73,54,30.24,30.11,11,3,0,0.00
2013-11-29,77.6,68.8,58.4,63.0,59.7,56.0,93,74,54,30.26,30.17,14,2,0,0.00
2013-11-30,76.1,68.9,60.4,70.0,63.2,59.0,95,83,66,30.20,30.10,8,2,0,0.14
2013-12-1,80.2,67.9,61.3,71.0,65.8,60.0,98,93,70,30.09,29.93,6,1,0,1.92
2013-12-2,73.1,66.9,61.1,67.0,64.2,60.0,98,91,72,29.93,29.81,8,1,0,0.00
2013-12-3,79.6,68.0,60.5,66.0,60.1,-99.9,97,81,56,29.99,29.89,5,-20,0,0.00
2013-12-4,82.7,72.1,64.1,71.0,63.0,-99.9,98,80,59,30.08,29.98,6,-10,0,0.00
2013-12-5,83.2,74.2,64.7,72.0,68.8,64.0,98,84,67,30.15,30.07,9,2,0,0.00
2013-12-6,83.3,76.8,68.9,72.0,69.6,66.0,92,79,63,30.17,30.08,11,2,0,0.00
2013-12-7,83.7,73.3,66.2,73.0,68.9,65.0,96,87,61,30.21,30.12,6,1,0,0.01
2013-12-8,83.0,77.1,71.4,72.0,69.7,67.0,92,78,64,30.20,30.11,10,2,0,0.01
2013-12-9,83.5,77.3,70.3,71.0,68.7,64.0,92,75,53,30.18,30.09,9,3,0,0.00
2013-12-10,85.4,77.2,71.3,74.0,69.5,-99.9,95,82,67,30.15,30.07,6,1,0,0.00
2013-12-11,84.3,75.1,69.2,75.0,70.6,68.0,98,86,63,30.19,30.11,8,1,0,0.00
2013-12-12,78.8,71.0,64.7,71.0,66.2,60.0,97,85,70,30.21,30.12,9,2,0,0.01
2013-12-13,77.5,72.9,68.8,69.0,63.8,59.0,84,73,65,30.18,30.09,13,3,0,0.01
2013-12-14,81.9,76.9,72.8,73.0,70.8,69.0,92,81,70,30.10,29.98,13,4,0,0.06
2013-12-15,84.4,75.8,70.2,76.0,71.9,68.0,96,88,74,30.05,29.92,7,1,0,0.01
2013-12-16,73.9,67.4,60.8,67.0,61.5,58.0,92,81,67,30.14,30.03,5,2,0,0.01
2013-12-17,77.2,66.1,57.7,65.0,59.3,56.0,95,80,59,30.17,30.09,7,2,0,0.00
2013-12-18,76.2,65.4,59.2,60.0,58.0,56.0,95,78,55,30.23,30.13,5,2,0,0.00
2013-12-19,77.5,68.2,56.5,64.0,59.6,55.0,95,76,58,30.23,30.14,9,2,0,0.00
2013-12-20,80.1,75.4,68.8,71.0,67.4,62.0,81,76,69,30.18,30.09,11,2,0,0.00
2013-12-21,82.5,77.8,75.2,73.0,71.7,69.0,87,81,71,30.13,30.05,11,3,0,0.00
2013-12-22,83.4,78.5,76.1,74.0,72.5,71.0,89,82,70,30.15,30.07,13,4,0,0.00
2013-12-23,84.0,77.9,71.4,74.0,72.4,69.0,93,83,71,30.16,30.10,12,3,0,0.00
2013-12-24,81.9,70.8,66.6,73.0,65.6,-99.9,98,86,69,30.16,30.07,8,-9,0,0.00
2013-12-25,76.1,72.9,70.6,67.0,65.8,64.0,83,78,72,30.16,30.09,14,4,0,0.00
2013-12-26,78.1,74.8,72.0,71.0,69.2,67.0,87,83,76,30.15,30.05,6,2,0,0.00
2013-12-27,81.4,74.8,68.1,72.0,69.6,67.0,96,84,73,30.18,30.08,11,2,0,0.00
2013-12-28,78.9,76.0,72.5,73.0,71.0,68.0,90,84,79,30.16,30.01,15,4,0,0.02
2013-12-29,81.9,77.3,73.9,75.0,73.2,72.0,95,87,77,30.02,29.92,13,3,0,0.04
2013-12-30,78.7,72.4,67.5,73.0,69.3,65.0,97,90,77,30.13,29.97,5,1,0,0.00
2013-12-31,78.3,72.4,66.8,68.0,64.6,62.0,88,77,63,30.21,30.09,18,3,0,0.00
2014-1-1,80.6,75.6,72.2,74.0,70.5,65.0,93,84,74,30.18,30.03,9,2,0,0.01
2014-1-2,86.1,75.8,67.3,72.0,69.2,66.0,97,81,56,30.03,29.85,8,1,0,0.01